WetterOnline ( https://www.wetteronline.at )

Wetter aktuell Brünn

Aktuelles Wetter: Brünn - Turany (246m)

6-stündlich | Neueste Meldungen
Ortszeit Temperatur Wetter
So, 26.01. 19:00 -1.4° C bedeckt
So, 26.01. 13:00 -1.6° C bedeckt
So, 26.01. 7:00 -1.3° C gefr. Sprühregen
So, 26.01. 1:00 -0.9° C bedeckt
Sa, 25.01. 19:00 -1.4° C gefr. Sprühregen
Sa, 25.01. 13:00 -1.5° C bedeckt
Sa, 25.01. 7:00 -1.4° C bedeckt
Sa, 25.01. 1:00 -1.4° C bedeckt
Ortszeit Temperatur Wetter
Mo, 27.01. 0:30 -2° C bedeckt
Mo, 27.01. 0:00 -1.7° C bedeckt
So, 26.01. 23:30 -2° C bedeckt
So, 26.01. 23:00 -1.7° C bedeckt
So, 26.01. 22:30 -2° C bedeckt
So, 26.01. 22:00 -1.6° C Nebel mit Raueis
So, 26.01. 21:52 -2° C Nebel mit Raueis
So, 26.01. 21:30 -2° C bedeckt
So, 26.01. 21:00 -1.6° C gefr. Sprühregen
Ortszeit Relative Feuchte Sichtweite
So, 26.01. 19:00 98% 2.5 km
So, 26.01. 13:00 98% 1.2 km
So, 26.01. 7:00 96% 7 km
So, 26.01. 1:00 95% 10 km
Sa, 25.01. 19:00 95% 3.0 km
Sa, 25.01. 13:00 90% 5.0 km
Sa, 25.01. 7:00 89% 6 km
Sa, 25.01. 1:00 97% 3.0 km
Ortszeit Relative Feuchte Sichtweite
Mo, 27.01. 0:30 100% 2.5 km
Mo, 27.01. 0:00 98% 2.5 km
So, 26.01. 23:30 100% 2.5 km
So, 26.01. 23:00 97% 3.0 km
So, 26.01. 22:30 100% 3.0 km
So, 26.01. 22:00 98% 0.8 km
So, 26.01. 21:52 100% 0.8 km
So, 26.01. 21:30 100% 1.4 km
So, 26.01. 21:00 98% 3.0 km
Ortszeit Niederschlagsmenge Niederschlagsart
So, 26.01. 19:00 0.1 l/m2 in 12 Std. -
So, 26.01. 13:00 0.1 l/m2 in 6 Std. Sprühregen, Nebel
So, 26.01. 7:00 0.1 l/m2 in 12 Std. Sprühregen
So, 26.01. 1:00 0.1 l/m2 in 6 Std. Sprühregen, Nebel
Sa, 25.01. 19:00 0.1 l/m2 in 12 Std. Sprühregen
Sa, 25.01. 13:00 0.0 l/m2 in 6 Std. -
Sa, 25.01. 7:00 0.1 l/m2 in 12 Std. -
Sa, 25.01. 1:00 0.1 l/m2 in 6 Std. Sprühregen
Ortszeit Niederschlagsmenge Niederschlagsart
Mo, 27.01. 0:30 keine Meldung -
Mo, 27.01. 0:00 0.0 l/m2 in 1 Std. -
So, 26.01. 23:30 keine Meldung -
So, 26.01. 23:00 0.0 l/m2 in 1 Std. Nebel
So, 26.01. 22:30 keine Meldung -
So, 26.01. 22:00 0.1 l/m2 in 1 Std. Sprühregen, Nebel
So, 26.01. 21:52 keine Meldung -
So, 26.01. 21:30 keine Meldung -
So, 26.01. 21:00 0.0 l/m2 in 1 Std. Sprühregen
Ortszeit Stärke Spitze Richtung
km/h Bft. km/h Grad Sektor
So, 26.01. 19:00 11 2 - 220° SW
So, 26.01. 13:00 7 2 - 180° S
So, 26.01. 7:00 7 2 - 200° S
So, 26.01. 1:00 4 1 - 180° S
Sa, 25.01. 19:00 7 2 - 160° S
Sa, 25.01. 13:00 7 2 - 180° S
Sa, 25.01. 7:00 14 3 - 240° SW
Sa, 25.01. 1:00 7 2 - 190° S
Ortszeit Stärke Spitze Richtung
km/h Bft. km/h Grad Sektor
Mo, 27.01. 0:30 6 1 - 230° SW
Mo, 27.01. 0:00 7 2 - 200° S
So, 26.01. 23:30 7 2 - 230° SW
So, 26.01. 23:00 4 1 - 210° SW
So, 26.01. 22:30 6 1 - 180° S
So, 26.01. 22:00 7 2 - 240° SW
So, 26.01. 21:52 6 1 - 190° S
So, 26.01. 21:30 6 1 - 220° SW
So, 26.01. 21:00 7 2 - 240° SW
Ortszeit Untergrenze Bedeckung Gattung
total tief tief mittel hoch
So, 26.01. 19:00 60 m 8/8 8/8 St - -
So, 26.01. 13:00 30 m 8/8 8/8 St - -
So, 26.01. 7:00 150 m 8/8 8/8 St - -
So, 26.01. 1:00 120 m 8/8 8/8 St - -
Sa, 25.01. 19:00 120 m 8/8 8/8 St - -
Sa, 25.01. 13:00 210 m 8/8 8/8 St - -
Sa, 25.01. 7:00 300 m 8/8 8/8 St - -
Sa, 25.01. 1:00 180 m 8/8 8/8 St - -
Ortszeit Bedeckungsgrad in Achtel und Wolkenuntergrenze
Mo, 27.01. 0:30 8(60m)
Mo, 27.01. 0:00 8(60m)
So, 26.01. 23:30 8(60m)
So, 26.01. 23:00 8(90m)
So, 26.01. 22:30 8(60m)
So, 26.01. 22:00 8(30m)
So, 26.01. 21:52 8(60m)
So, 26.01. 21:30 8(60m)
So, 26.01. 21:00 8(90m)
Ortszeit Luftdruck NN (hPa) Tendenz (hPa in 3 Std.)
So, 26.01. 19:00 1023 + 0,1
So, 26.01. 13:00 1024 - 0,8
So, 26.01. 7:00 1024 + 0,1
So, 26.01. 1:00 1024 - 0,3
Sa, 25.01. 19:00 1025 + 0,3
Sa, 25.01. 13:00 1025 - 0,5
Sa, 25.01. 7:00 1025 + 0,3
Sa, 25.01. 1:00 1025 - 0,6
Ortszeit Luftdruck NN (hPa) Tendenz (hPa in 3 Std.)
Mo, 27.01. 0:30 1020 keine Meldung
Mo, 27.01. 0:00 1022 - 0,3
So, 26.01. 23:30 1020 keine Meldung
So, 26.01. 23:00 1022 - 0,4
So, 26.01. 22:30 1020 keine Meldung
So, 26.01. 22:00 1022 - 0,4
So, 26.01. 21:52 1020 keine Meldung
So, 26.01. 21:30 1020 keine Meldung
So, 26.01. 21:00 1023 - 0,2
Ortszeit Schneehöhe (cm)
So, 26.01. 19:00 0
So, 26.01. 13:00 -
So, 26.01. 7:00 -
So, 26.01. 1:00 -
Sa, 25.01. 19:00 0
Sa, 25.01. 13:00 -
Sa, 25.01. 7:00 -
Sa, 25.01. 1:00 -
Ortszeit Schneehöhe (cm)
Mo, 27.01. 0:30 -
Mo, 27.01. 0:00 -
So, 26.01. 23:30 -
So, 26.01. 23:00 -
So, 26.01. 22:30 -
So, 26.01. 22:00 -
So, 26.01. 21:52 -
So, 26.01. 21:30 -
So, 26.01. 21:00 -
Link zu dieser Seite / Seite empfehlen

Das Wetter in ...